createdAt,value
2022-10-23T00:01:53.202Z,100333.59
2022-10-23T00:04:27.346Z,100322.53
2022-10-23T00:06:54.339Z,100331.44
2022-10-23T00:09:24.205Z,100325.50
2022-10-23T00:11:52.812Z,100328.81
2022-10-23T00:14:27.043Z,100312.78
2022-10-23T00:16:56.026Z,100312.47
2022-10-23T00:19:24.371Z,100310.28
2022-10-23T00:21:51.492Z,100313.56
2022-10-23T00:24:18.598Z,100296.22
2022-10-23T00:26:45.498Z,100291.59
2022-10-23T00:29:12.390Z,100286.59
2022-10-23T00:31:44.282Z,100286.59
2022-10-23T00:34:11.209Z,100296.47
2022-10-23T00:36:38.310Z,100287.78
2022-10-23T00:39:07.291Z,100294.16
2022-10-23T00:41:42.894Z,100301.47
2022-10-23T00:44:31.272Z,100306.06
2022-10-23T00:46:59.606Z,100307.69
2022-10-23T00:49:30.918Z,100311.19
2022-10-23T00:52:08.855Z,100295.41
2022-10-23T00:54:45.587Z,100295.13
2022-10-23T00:57:16.078Z,100291.09
2022-10-23T00:59:43.638Z,100285.03
2022-10-23T01:02:10.711Z,100286.28
2022-10-23T01:04:41.835Z,100278.22
2022-10-23T01:07:33.947Z,100271.38
2022-10-23T01:10:15.520Z,100266.16
2022-10-23T01:13:39.215Z,100273.66
2022-10-23T01:16:17.304Z,100274.13
2022-10-23T01:18:59.562Z,100274.38
2022-10-23T01:21:53.468Z,100269.72
2022-10-23T01:24:43.431Z,100277.19
2022-10-23T01:27:20.557Z,100270.41
2022-10-23T01:30:08.778Z,100263.41
2022-10-23T01:32:38.627Z,100263.22
2022-10-23T01:35:23.235Z,100257.03
2022-10-23T01:38:18.058Z,100274.53
2022-10-23T01:40:50.105Z,100274.38
2022-10-23T01:43:46.442Z,100270.88
2022-10-23T01:46:16.862Z,100270.56
2022-10-23T01:48:51.421Z,100276.28
2022-10-23T01:51:26.344Z,100265.00
2022-10-23T01:53:59.827Z,100249.25
2022-10-23T01:56:33.289Z,100240.38
2022-10-23T01:59:14.995Z,100245.50
2022-10-23T02:01:47.009Z,100241.63
2022-10-23T02:04:21.205Z,100246.31
2022-10-23T02:06:48.264Z,100251.75
2022-10-23T02:09:15.491Z,100244.44
2022-10-23T02:12:06.645Z,100238.94
2022-10-23T02:14:41.062Z,100243.25
2022-10-23T02:17:41.266Z,100236.09
2022-10-23T02:20:38.884Z,100227.56
2022-10-23T02:23:37.721Z,100230.03
2022-10-23T02:26:53.808Z,100230.31
2022-10-23T02:29:38.941Z,100220.34
2022-10-23T02:32:11.436Z,100223.31
2022-10-23T02:34:38.523Z,100217.72
2022-10-23T02:37:07.557Z,100211.50
2022-10-23T02:39:36.622Z,100207.44
2022-10-23T02:42:23.965Z,100214.06
2022-10-23T02:45:17.978Z,100218.19
2022-10-23T02:48:19.281Z,100216.03
2022-10-23T02:51:27.713Z,100205.50
2022-10-23T02:54:30.351Z,100215.38
2022-10-23T02:57:05.315Z,100214.38
2022-10-23T02:59:52.868Z,100203.06
2022-10-23T03:02:57.654Z,100203.88
2022-10-23T03:05:31.425Z,100206.13
2022-10-23T03:08:00.179Z,100202.72
2022-10-23T03:10:27.047Z,100201.22
2022-10-23T03:12:54.025Z,100208.63
2022-10-23T03:15:20.890Z,100205.31
2022-10-23T03:17:52.837Z,100199.53
2022-10-23T03:20:23.041Z,100191.91
2022-10-23T03:22:49.967Z,100197.66
2022-10-23T03:25:16.958Z,100204.59
2022-10-23T03:27:44.819Z,100200.72
2022-10-23T03:30:12.137Z,100200.19
2022-10-23T03:32:39.166Z,100200.53
2022-10-23T03:35:06.535Z,100201.88
2022-10-23T03:37:33.557Z,100197.75
2022-10-23T03:40:00.495Z,100192.34
2022-10-23T03:42:27.535Z,100183.53
2022-10-23T03:44:54.401Z,100187.31
2022-10-23T03:47:24.480Z,100183.38
2022-10-23T03:49:51.426Z,100179.66
2022-10-23T03:52:18.455Z,100182.47
2022-10-23T03:54:46.448Z,100183.16
2022-10-23T03:57:14.347Z,100185.72
2022-10-23T03:59:48.353Z,100180.69
2022-10-23T04:02:15.330Z,100179.59
2022-10-23T04:04:42.286Z,100179.03
2022-10-23T04:07:16.410Z,100180.50
2022-10-23T04:09:43.267Z,100174.91
2022-10-23T04:12:10.199Z,100173.97
2022-10-23T04:14:37.187Z,100179.09
2022-10-23T04:17:05.207Z,100187.25
2022-10-23T04:19:36.081Z,100195.63
2022-10-23T04:22:02.941Z,100194.06
2022-10-23T04:24:29.814Z,100195.97
2022-10-23T04:26:56.687Z,100182.38
2022-10-23T04:29:26.655Z,100179.66
2022-10-23T04:31:53.521Z,100188.44
2022-10-23T04:34:20.455Z,100184.66
2022-10-23T04:36:50.575Z,100173.94
2022-10-23T04:39:18.698Z,100175.56
2022-10-23T04:41:45.669Z,100174.66
2022-10-23T04:44:12.521Z,100184.88
2022-10-23T04:46:41.511Z,100189.56
2022-10-23T04:49:08.496Z,100189.50
2022-10-23T04:51:35.402Z,100201.28
2022-10-23T04:54:02.384Z,100195.97
2022-10-23T04:56:29.351Z,100186.38
2022-10-23T04:58:56.247Z,100185.84
2022-10-23T05:01:23.416Z,100183.00
2022-10-23T05:03:50.391Z,100172.38
2022-10-23T05:06:17.249Z,100170.34
2022-10-23T05:08:44.126Z,100181.28
2022-10-23T05:11:11.044Z,100176.63
2022-10-23T05:13:37.944Z,100170.69
2022-10-23T05:16:05.304Z,100172.16
2022-10-23T05:18:38.533Z,100167.16
2022-10-23T05:21:25.834Z,100160.81
2022-10-23T05:23:54.888Z,100156.50
2022-10-23T05:26:22.451Z,100151.19
2022-10-23T05:28:49.850Z,100148.34
2022-10-23T05:31:20.111Z,100143.13
2022-10-23T05:33:47.053Z,100151.44
2022-10-23T05:36:14.990Z,100142.63
2022-10-23T05:38:42.144Z,100143.50
2022-10-23T05:41:10.093Z,100148.97
2022-10-23T05:43:38.041Z,100146.88
2022-10-23T05:46:06.313Z,100144.63
2022-10-23T05:48:35.414Z,100150.38
2022-10-23T05:51:08.811Z,100141.19
2022-10-23T05:53:38.740Z,100136.81
2022-10-23T05:56:09.558Z,100129.56
2022-10-23T05:58:36.924Z,100130.78
2022-10-23T06:01:11.387Z,100131.84
2022-10-23T06:03:39.645Z,100133.88
2022-10-23T06:06:08.031Z,100135.00
2022-10-23T06:08:35.737Z,100126.81
2022-10-23T06:11:08.723Z,100132.69
2022-10-23T06:13:36.816Z,100126.06
2022-10-23T06:16:14.960Z,100115.22
2022-10-23T06:18:45.983Z,100111.22
2022-10-23T06:21:13.911Z,100120.81
2022-10-23T06:23:42.472Z,100120.81
2022-10-23T06:26:12.574Z,100125.19
2022-10-23T06:28:39.858Z,100116.34
2022-10-23T06:31:10.167Z,100113.72
2022-10-23T06:33:37.229Z,100117.59
2022-10-23T06:36:05.594Z,100118.78
2022-10-23T06:38:37.429Z,100117.69
2022-10-23T06:41:09.148Z,100117.38
2022-10-23T06:43:36.127Z,100112.03
2022-10-23T06:46:04.538Z,100119.63
2022-10-23T06:48:32.546Z,100118.06
2022-10-23T06:51:05.084Z,100123.19
2022-10-23T06:53:33.466Z,100149.47
2022-10-23T06:56:03.129Z,100133.91
2022-10-23T06:58:33.971Z,100145.59
2022-10-23T07:01:11.133Z,100138.06
2022-10-23T07:03:38.042Z,100137.44
2022-10-23T07:06:08.707Z,100120.56
2022-10-23T07:08:36.578Z,100141.25
2022-10-23T07:11:10.219Z,100131.13
2022-10-23T07:13:38.667Z,100131.50
2022-10-23T07:16:21.842Z,100147.59
2022-10-23T07:18:53.588Z,100142.91
2022-10-23T07:21:20.581Z,100132.63
2022-10-23T07:23:47.582Z,100138.72
2022-10-23T07:26:17.016Z,100143.34
2022-10-23T07:28:47.512Z,100145.63
2022-10-23T07:31:14.908Z,100154.47
2022-10-23T07:33:41.814Z,100150.09
2022-10-23T07:36:09.648Z,100151.47
2022-10-23T07:38:36.673Z,100161.09
2022-10-23T07:41:04.616Z,100153.09
2022-10-23T07:46:04.246Z,100149.66
2022-10-23T07:48:32.225Z,100149.00
2022-10-23T07:51:03.519Z,100149.84
2022-10-23T07:53:30.548Z,100143.16
2022-10-23T07:56:03.531Z,100132.41
2022-10-23T07:58:31.019Z,100143.16
2022-10-23T08:01:01.684Z,100134.97
2022-10-23T08:03:34.140Z,100123.84
2022-10-23T08:06:01.014Z,100121.91
2022-10-23T08:08:27.887Z,100131.53
2022-10-23T08:10:55.963Z,100135.13
2022-10-23T08:13:23.994Z,100134.72
2022-10-23T08:15:52.734Z,100123.59
2022-10-23T08:18:20.286Z,100137.16
2022-10-23T08:20:50.478Z,100136.09
2022-10-23T08:23:19.785Z,100133.44
2022-10-23T08:26:05.310Z,100129.34
2022-10-23T08:28:33.684Z,100121.56
2022-10-23T08:31:12.513Z,100118.06
2022-10-23T08:33:40.199Z,100117.06
2022-10-23T08:36:27.192Z,100112.00
2022-10-23T08:38:59.294Z,100102.13
2022-10-23T08:41:48.667Z,100093.34
2022-10-23T08:44:28.406Z,100092.91
2022-10-23T08:47:30.358Z,100090.22
2022-10-23T08:50:06.299Z,100079.28
2022-10-23T08:52:53.643Z,100087.25
2022-10-23T08:55:27.784Z,100085.44
2022-10-23T08:58:15.177Z,100085.44
2022-10-23T09:00:43.654Z,100085.84
2022-10-23T09:03:12.994Z,100079.06
2022-10-23T09:05:57.539Z,100070.94
2022-10-23T09:09:00.140Z,100069.94
2022-10-23T09:12:21.930Z,100065.19
2022-10-23T09:15:12.733Z,100076.66
2022-10-23T09:17:45.571Z,100060.06
2022-10-23T09:20:28.685Z,100059.66
2022-10-23T09:23:03.775Z,100065.00
2022-10-23T09:25:37.992Z,100057.34
2022-10-23T09:28:05.863Z,100064.28
2022-10-23T09:30:42.299Z,100051.84
2022-10-23T09:33:28.107Z,100058.84
2022-10-23T09:36:24.276Z,100044.03
2022-10-23T09:38:54.890Z,100035.34
2022-10-23T09:41:43.170Z,100046.34
2022-10-23T09:44:25.051Z,100037.69
2022-10-23T09:47:13.329Z,100046.69
2022-10-23T09:49:48.263Z,100046.69
2022-10-23T09:52:16.646Z,100029.53
2022-10-23T09:54:57.691Z,100023.41
2022-10-23T09:57:33.359Z,100021.94
2022-10-23T10:00:06.500Z,100036.13
2022-10-23T10:02:36.459Z,100034.75
2022-10-23T10:05:26.115Z,100038.63
2022-10-23T10:08:09.212Z,100037.47
2022-10-23T10:10:43.232Z,100049.03
2022-10-23T10:13:37.305Z,100031.22
2022-10-23T10:16:24.487Z,100025.94
2022-10-23T10:19:08.322Z,100016.88
2022-10-23T10:21:50.176Z,100008.34
2022-10-23T10:24:39.146Z,99995.34
2022-10-23T10:27:40.703Z,100001.25
2022-10-23T10:30:23.423Z,99991.94
2022-10-23T10:33:26.383Z,99979.78
2022-10-23T10:36:04.731Z,99986.44
2022-10-23T10:38:51.983Z,99979.16
2022-10-23T10:41:59.472Z,99982.38
2022-10-23T10:44:53.672Z,99981.63
2022-10-23T10:47:45.737Z,99991.59
2022-10-23T10:50:47.723Z,99991.97
2022-10-23T10:53:48.622Z,100009.06
2022-10-23T10:56:17.872Z,100001.19
2022-10-23T10:58:55.380Z,99991.00
2022-10-23T11:01:51.078Z,99976.34
2022-10-23T11:05:04.816Z,99981.66
2022-10-23T11:07:42.681Z,99968.06
2022-10-23T11:10:19.257Z,99951.59
2022-10-23T11:12:47.749Z,99947.47
2022-10-23T11:15:19.495Z,99953.81
2022-10-23T11:17:56.069Z,99949.88
2022-10-23T11:21:11.840Z,99943.25
2022-10-23T11:24:19.094Z,99951.69
2022-10-23T11:27:02.126Z,99949.22
2022-10-23T11:29:59.729Z,99949.44
2022-10-23T11:33:04.599Z,99933.00
2022-10-23T11:36:28.206Z,99928.72
2022-10-23T11:38:59.186Z,99930.00
2022-10-23T11:41:34.142Z,99925.91
2022-10-23T11:44:05.621Z,99925.00
2022-10-23T11:46:32.585Z,99909.97
2022-10-23T11:49:02.431Z,99902.50
2022-10-23T11:51:41.614Z,99903.28
2022-10-23T11:54:11.515Z,99889.03
2022-10-23T11:56:51.543Z,99893.81
2022-10-23T11:59:32.880Z,99890.88
2022-10-23T12:02:03.546Z,99893.88
2022-10-23T12:04:45.643Z,99889.78
2022-10-23T12:07:24.726Z,99888.06
2022-10-23T12:10:06.401Z,99869.22
2022-10-23T12:12:43.223Z,99875.66
2022-10-23T12:15:15.696Z,99878.44
2022-10-23T12:17:43.990Z,99874.22
2022-10-23T12:20:11.342Z,99874.78
2022-10-23T12:23:11.199Z,99870.00
2022-10-23T12:26:00.463Z,99854.13
2022-10-23T12:28:42.278Z,99849.66
2022-10-23T12:31:47.091Z,99843.41
2022-10-23T12:34:20.673Z,99859.94
2022-10-23T12:37:18.250Z,99852.44
2022-10-23T12:39:54.326Z,99844.69
2022-10-23T12:42:24.756Z,99843.47
2022-10-23T12:45:05.670Z,99836.50
2022-10-23T12:47:32.943Z,99826.75
2022-10-23T12:49:59.890Z,99820.09
2022-10-23T12:52:26.785Z,99812.22
2022-10-23T12:54:53.715Z,99802.38
2022-10-23T12:57:28.252Z,99808.63
2022-10-23T13:00:10.456Z,99815.31
2022-10-23T13:02:37.666Z,99809.56
2022-10-23T13:05:18.210Z,99817.16
2022-10-23T13:07:47.637Z,99809.91
2022-10-23T13:10:18.439Z,99810.84
2022-10-23T13:12:58.527Z,99810.00
2022-10-23T13:15:26.779Z,99803.22
2022-10-23T13:17:53.682Z,99803.97
2022-10-23T13:20:29.027Z,99783.72
2022-10-23T13:23:08.086Z,99797.97
2022-10-23T13:25:37.729Z,99783.66
2022-10-23T13:28:26.888Z,99799.53
2022-10-23T13:31:07.264Z,99783.72
2022-10-23T13:33:45.265Z,99768.84
2022-10-23T13:36:14.666Z,99773.59
2022-10-23T13:38:45.189Z,99766.47
2022-10-23T13:41:19.391Z,99773.97
2022-10-23T13:43:48.688Z,99759.06
2022-10-23T13:46:21.977Z,99769.88
2022-10-23T13:48:49.426Z,99755.69
2022-10-23T13:51:22.838Z,99755.97
2022-10-23T13:53:50.894Z,99745.03
2022-10-23T13:56:20.831Z,99747.75
2022-10-23T13:58:48.803Z,99737.91
2022-10-23T14:01:33.454Z,99731.66
2022-10-23T14:04:00.623Z,99729.69
2022-10-23T14:06:27.536Z,99730.22
2022-10-23T14:08:54.389Z,99722.16
2022-10-23T14:11:21.486Z,99725.69
2022-10-23T14:13:49.670Z,99728.97
2022-10-23T14:16:19.510Z,99737.53
2022-10-23T14:18:46.684Z,99745.72
2022-10-23T14:21:18.159Z,99745.13
2022-10-23T14:23:45.006Z,99736.50
2022-10-23T14:26:15.864Z,99750.06
2022-10-23T14:28:43.410Z,99751.44
2022-10-23T14:31:16.961Z,99751.19
2022-10-23T14:33:45.695Z,99742.03
2022-10-23T14:36:13.327Z,99742.41
2022-10-23T14:38:40.303Z,99740.56
2022-10-23T14:41:16.075Z,99738.88
2022-10-23T14:43:43.380Z,99742.03
2022-10-23T14:46:16.576Z,99734.88
2022-10-23T14:48:46.189Z,99727.22
2022-10-23T14:51:20.587Z,99727.69
2022-10-23T14:53:48.742Z,99715.94
2022-10-23T14:56:16.337Z,99718.25
2022-10-23T14:58:43.499Z,99721.78
2022-10-23T15:01:10.736Z,99711.16
2022-10-23T15:03:38.286Z,99719.00
2022-10-23T15:06:07.803Z,99721.78
2022-10-23T15:08:36.010Z,99708.50
2022-10-23T15:11:06.690Z,99704.25
2022-10-23T15:13:35.942Z,99703.41
2022-10-23T15:16:09.426Z,99692.81
2022-10-23T15:21:10.097Z,99696.97
2022-10-23T15:23:41.055Z,99690.03
2022-10-23T15:26:13.272Z,99688.19
2022-10-23T15:28:40.191Z,99679.06
2022-10-23T15:31:07.080Z,99671.47
2022-10-23T15:33:34.043Z,99665.00
2022-10-23T15:36:01.004Z,99670.13
2022-10-23T15:38:27.938Z,99666.16
2022-10-23T15:41:04.612Z,99661.16
2022-10-23T15:43:31.491Z,99652.56
2022-10-23T15:45:58.403Z,99650.00
2022-10-23T15:48:25.267Z,99646.19
2022-10-23T15:50:52.132Z,99645.19
2022-10-23T15:53:18.999Z,99646.91
2022-10-23T15:55:47.206Z,99638.53
2022-10-23T15:58:14.196Z,99639.78
2022-10-23T16:00:41.073Z,99646.28
2022-10-23T16:03:08.314Z,99639.81
2022-10-23T16:05:36.703Z,99637.66
2022-10-23T16:08:03.648Z,99631.00
2022-10-23T16:10:30.656Z,99635.31
2022-10-23T16:12:57.555Z,99635.38
2022-10-23T16:15:24.529Z,99636.28
2022-10-23T16:17:51.746Z,99642.78
2022-10-23T16:20:20.011Z,99632.13
2022-10-23T16:22:47.141Z,99631.97
2022-10-23T16:25:14.189Z,99628.31
2022-10-23T16:27:41.259Z,99625.47
2022-10-23T16:30:09.452Z,99631.59
2022-10-23T16:32:36.867Z,99626.31
2022-10-23T16:35:03.996Z,99632.41
2022-10-23T16:37:31.046Z,99650.88
2022-10-23T16:39:58.502Z,99635.84
2022-10-23T16:42:25.884Z,99641.38
2022-10-23T16:44:52.733Z,99628.03
2022-10-23T16:47:19.796Z,99634.88
2022-10-23T16:49:46.670Z,99642.66
2022-10-23T16:52:13.606Z,99647.72
2022-10-23T16:54:42.927Z,99652.53
2022-10-23T16:57:09.866Z,99659.84
2022-10-23T16:59:37.008Z,99663.22
2022-10-23T17:02:04.185Z,99664.06
2022-10-23T17:04:31.357Z,99673.34
2022-10-23T17:06:58.272Z,99672.50
2022-10-23T17:09:27.465Z,99677.41
2022-10-23T17:11:54.764Z,99672.91
2022-10-23T17:14:24.956Z,99700.31
2022-10-23T17:16:53.191Z,99722.53
2022-10-23T17:19:43.723Z,99761.44
2022-10-23T17:22:13.202Z,99837.78
2022-10-23T17:24:42.253Z,99850.31
2022-10-23T17:27:10.200Z,99846.84
2022-10-23T17:29:37.160Z,99848.84
2022-10-23T17:32:04.285Z,99838.09
2022-10-23T17:34:31.258Z,99878.31
2022-10-23T17:36:58.223Z,99881.16
2022-10-23T17:39:29.921Z,99891.88
2022-10-23T17:42:00.043Z,99900.56
2022-10-23T17:44:29.227Z,99893.91
2022-10-23T17:46:56.309Z,99881.41
2022-10-23T17:49:24.382Z,99861.94
2022-10-23T17:51:56.952Z,99856.31
2022-10-23T17:54:26.039Z,99822.34
2022-10-23T17:56:52.996Z,99800.31
2022-10-23T17:59:20.153Z,99806.75
2022-10-23T18:01:48.290Z,99819.31
2022-10-23T18:04:20.410Z,99840.59
2022-10-23T18:06:51.249Z,99854.31
2022-10-23T18:09:19.540Z,99876.19
2022-10-23T18:11:48.112Z,99860.22
2022-10-23T18:14:18.052Z,99847.22
2022-10-23T18:16:45.734Z,99829.84
2022-10-23T18:19:14.415Z,99802.09
2022-10-23T18:21:41.463Z,99756.41
2022-10-23T18:24:09.366Z,99780.69
2022-10-23T18:26:39.129Z,99824.19
2022-10-23T18:29:10.131Z,99816.06
2022-10-23T18:31:38.047Z,99810.59
2022-10-23T18:34:12.180Z,99795.44
2022-10-23T18:36:40.819Z,99792.38
2022-10-23T18:39:12.355Z,99803.72
2022-10-23T18:41:42.760Z,99793.59
2022-10-23T18:44:11.675Z,99791.19
2022-10-23T18:46:38.605Z,99791.56
2022-10-23T18:49:06.126Z,99784.31
2022-10-23T18:51:35.203Z,99764.09
2022-10-23T18:54:08.170Z,99759.19
2022-10-23T18:56:36.077Z,99782.91
2022-10-23T18:59:06.091Z,99794.88
2022-10-23T19:01:34.758Z,99785.94
2022-10-23T19:04:02.966Z,99780.66
2022-10-23T19:06:31.688Z,99773.34
2022-10-23T19:08:59.190Z,99773.53
2022-10-23T19:11:28.293Z,99779.41
2022-10-23T19:13:55.455Z,99775.34
2022-10-23T19:17:04.240Z,99763.03
2022-10-23T19:19:41.460Z,99771.34
2022-10-23T19:22:10.040Z,99774.56
2022-10-23T19:24:54.538Z,99780.81
2022-10-23T19:27:21.518Z,99789.31
2022-10-23T19:29:50.486Z,99797.63
2022-10-23T19:32:17.917Z,99792.19
2022-10-23T19:34:45.377Z,99791.09
2022-10-23T19:37:15.279Z,99785.84
2022-10-23T19:39:42.449Z,99771.50
2022-10-23T19:42:09.353Z,99776.31
2022-10-23T19:44:36.244Z,99773.75
2022-10-23T19:47:03.383Z,99785.22
2022-10-23T19:49:30.416Z,99778.81
2022-10-23T19:51:57.334Z,99778.97
2022-10-23T19:54:24.581Z,99783.00
2022-10-23T19:56:51.582Z,99772.09
2022-10-23T19:59:18.924Z,99764.97
2022-10-23T20:01:48.017Z,99774.47
2022-10-23T20:04:18.163Z,99779.13
2022-10-23T20:06:45.746Z,99785.84
2022-10-23T20:09:12.633Z,99785.44
2022-10-23T20:11:40.619Z,99789.47
2022-10-23T20:14:08.094Z,99785.44
2022-10-23T20:16:38.174Z,99786.81
2022-10-23T20:19:09.356Z,99787.88
2022-10-23T20:21:38.456Z,99793.97
2022-10-23T20:24:06.113Z,99780.19
2022-10-23T20:26:33.583Z,99782.81
2022-10-23T20:29:00.496Z,99773.47
2022-10-23T20:31:28.175Z,99786.66
2022-10-23T20:33:56.601Z,99787.63
2022-10-23T20:36:45.581Z,99780.94
2022-10-23T20:39:21.655Z,99786.81
2022-10-23T20:41:48.744Z,99787.41
2022-10-23T20:46:50.019Z,99785.88
2022-10-23T20:49:18.622Z,99791.06
2022-10-23T20:51:46.109Z,99775.94
2022-10-23T20:54:13.035Z,99779.78
2022-10-23T20:56:40.060Z,99797.94
2022-10-23T20:59:13.615Z,99797.56
2022-10-23T21:01:44.400Z,99797.22
2022-10-23T21:04:14.878Z,99809.69
2022-10-23T21:07:04.468Z,99810.69
2022-10-23T21:09:31.152Z,99801.25
2022-10-23T21:11:58.080Z,99803.81
2022-10-23T21:14:24.994Z,99796.59
2022-10-23T21:16:51.911Z,99801.16
2022-10-23T21:19:18.832Z,99805.69
2022-10-23T21:21:45.819Z,99807.31
2022-10-23T21:24:16.325Z,99795.50
2022-10-23T21:26:44.833Z,99802.41
2022-10-23T21:29:18.610Z,99806.66
2022-10-23T21:31:55.983Z,99797.06
2022-10-23T21:34:25.229Z,99799.53
2022-10-23T21:37:13.109Z,99797.28
2022-10-23T21:39:39.714Z,99809.63
2022-10-23T21:42:06.962Z,99803.97
2022-10-23T21:44:34.116Z,99809.09
2022-10-23T21:47:01.078Z,99803.47
2022-10-23T21:49:27.984Z,99800.41
2022-10-23T21:51:55.232Z,99793.28
2022-10-23T21:54:22.453Z,99807.22
2022-10-23T21:56:53.416Z,99812.06
2022-10-23T21:59:28.819Z,99813.31
2022-10-23T22:01:58.815Z,99817.72
2022-10-23T22:04:25.879Z,99801.00
2022-10-23T22:06:53.294Z,99797.88
2022-10-23T22:09:22.331Z,99808.31
2022-10-23T22:11:52.545Z,99813.13
2022-10-23T22:14:20.290Z,99807.69
2022-10-23T22:16:48.562Z,99797.94
2022-10-23T22:19:17.586Z,99801.38
2022-10-23T22:21:44.683Z,99794.06
2022-10-23T22:24:12.448Z,99807.31
2022-10-23T22:26:46.193Z,99833.88
2022-10-23T22:29:17.151Z,99837.97
2022-10-23T22:31:47.304Z,99831.91
2022-10-23T22:34:48.236Z,99819.09
2022-10-23T22:37:13.325Z,99804.09
2022-10-23T22:39:40.868Z,99806.00
2022-10-23T22:42:08.498Z,99812.66
2022-10-23T22:44:35.529Z,99811.78
2022-10-23T22:47:02.438Z,99806.31
2022-10-23T22:49:29.484Z,99814.09
2022-10-23T22:51:56.360Z,99819.31
2022-10-23T22:54:23.339Z,99817.81
2022-10-23T22:56:50.201Z,99814.56
2022-10-23T22:59:17.138Z,99817.50
2022-10-23T23:01:47.075Z,99812.25
2022-10-23T23:04:37.742Z,99814.97
2022-10-23T23:07:06.772Z,99819.50
2022-10-23T23:09:40.806Z,99821.09
2022-10-23T23:12:10.504Z,99820.75
2022-10-23T23:14:38.027Z,99820.31
2022-10-23T23:17:05.679Z,99830.72
2022-10-23T23:19:32.965Z,99828.94
2022-10-23T23:22:00.822Z,99822.78
2022-10-23T23:24:27.833Z,99824.41
2022-10-23T23:26:54.686Z,99824.59
2022-10-23T23:29:21.788Z,99822.56
2022-10-23T23:31:49.731Z,99826.28
2022-10-23T23:34:16.635Z,99838.91
2022-10-23T23:36:43.557Z,99837.00
2022-10-23T23:39:10.574Z,99837.22
2022-10-23T23:41:38.384Z,99850.78
2022-10-23T23:44:05.680Z,99851.69
2022-10-23T23:46:32.567Z,99850.25
2022-10-23T23:48:59.455Z,99844.47
2022-10-23T23:51:26.610Z,99850.41
2022-10-23T23:53:53.796Z,99853.84
2022-10-23T23:56:21.163Z,99859.00
2022-10-23T23:58:48.671Z,99857.09
